sensor_id;sensor_type;location;lat;lon;timestamp;pressure;altitude;pressure_sealevel;temperature;humidity
73024;BME280;61199;47.526;8.538;2023-03-23T00:00:46;96046.34;;;15.21;52.63
73024;BME280;61199;47.526;8.538;2023-03-23T00:03:12;96042.06;;;15.20;52.97
73024;BME280;61199;47.526;8.538;2023-03-23T00:05:38;96042.75;;;15.14;53.21
73024;BME280;61199;47.526;8.538;2023-03-23T00:08:06;96047.53;;;15.10;53.56
73024;BME280;61199;47.526;8.538;2023-03-23T00:10:35;96042.63;;;15.07;53.58
73024;BME280;61199;47.526;8.538;2023-03-23T00:13:00;96041.44;;;15.10;53.12
73024;BME280;61199;47.526;8.538;2023-03-23T00:15:27;96039.28;;;15.13;53.33
73024;BME280;61199;47.526;8.538;2023-03-23T00:18:01;96034.34;;;15.10;53.36
73024;BME280;61199;47.526;8.538;2023-03-23T00:20:30;96035.63;;;15.14;53.15
73024;BME280;61199;47.526;8.538;2023-03-23T00:23:05;96034.31;;;15.18;53.11
73024;BME280;61199;47.526;8.538;2023-03-23T00:25:32;96031.53;;;15.20;52.78
73024;BME280;61199;47.526;8.538;2023-03-23T00:27:57;96023.75;;;15.18;53.58
73024;BME280;61199;47.526;8.538;2023-03-23T00:30:23;96022.44;;;15.14;52.72
73024;BME280;61199;47.526;8.538;2023-03-23T00:32:48;96024.25;;;15.22;52.70
73024;BME280;61199;47.526;8.538;2023-03-23T00:35:16;96020.28;;;15.18;52.64
73024;BME280;61199;47.526;8.538;2023-03-23T00:37:42;96022.94;;;15.18;52.27
73024;BME280;61199;47.526;8.538;2023-03-23T00:40:09;96027.13;;;15.04;53.31
73024;BME280;61199;47.526;8.538;2023-03-23T00:42:35;96022.88;;;14.87;53.18
73024;BME280;61199;47.526;8.538;2023-03-23T00:45:01;96014.34;;;14.85;53.82
73024;BME280;61199;47.526;8.538;2023-03-23T00:47:27;96016.88;;;14.55;55.28
73024;BME280;61199;47.526;8.538;2023-03-23T00:49:53;96023.34;;;14.61;55.22
73024;BME280;61199;47.526;8.538;2023-03-23T00:52:21;96013.19;;;14.34;56.09
73024;BME280;61199;47.526;8.538;2023-03-23T00:54:46;96013.13;;;14.50;55.53
73024;BME280;61199;47.526;8.538;2023-03-23T00:57:11;96012.50;;;13.84;57.47
73024;BME280;61199;47.526;8.538;2023-03-23T00:59:38;95999.00;;;13.63;57.67
73024;BME280;61199;47.526;8.538;2023-03-23T01:02:03;96013.50;;;13.91;56.96
73024;BME280;61199;47.526;8.538;2023-03-23T01:04:29;96008.41;;;13.65;57.62
73024;BME280;61199;47.526;8.538;2023-03-23T01:06:57;95997.03;;;13.73;57.00
73024;BME280;61199;47.526;8.538;2023-03-23T01:09:22;96008.22;;;14.07;56.30
73024;BME280;61199;47.526;8.538;2023-03-23T01:11:50;96006.94;;;13.79;57.08
73024;BME280;61199;47.526;8.538;2023-03-23T01:14:17;96009.88;;;13.76;57.16
73024;BME280;61199;47.526;8.538;2023-03-23T01:16:43;96020.09;;;13.79;56.81
73024;BME280;61199;47.526;8.538;2023-03-23T01:19:09;96005.25;;;13.78;57.06
73024;BME280;61199;47.526;8.538;2023-03-23T01:21:35;96008.22;;;13.75;57.06
73024;BME280;61199;47.526;8.538;2023-03-23T01:24:01;96007.91;;;13.94;56.27
73024;BME280;61199;47.526;8.538;2023-03-23T01:26:27;96007.41;;;14.06;55.99
73024;BME280;61199;47.526;8.538;2023-03-23T01:28:53;96007.72;;;14.19;55.59
73024;BME280;61199;47.526;8.538;2023-03-23T01:31:21;96011.34;;;14.34;55.25
73024;BME280;61199;47.526;8.538;2023-03-23T01:33:48;96011.97;;;14.44;54.88
73024;BME280;61199;47.526;8.538;2023-03-23T01:36:18;96002.94;;;14.47;54.85
73024;BME280;61199;47.526;8.538;2023-03-23T01:38:46;96004.22;;;14.51;55.28
73024;BME280;61199;47.526;8.538;2023-03-23T01:41:13;96010.00;;;14.46;54.57
73024;BME280;61199;47.526;8.538;2023-03-23T01:43:58;96000.81;;;14.34;54.99
73024;BME280;61199;47.526;8.538;2023-03-23T01:46:30;96006.22;;;14.41;54.46
73024;BME280;61199;47.526;8.538;2023-03-23T01:48:58;96004.28;;;14.35;54.54
73024;BME280;61199;47.526;8.538;2023-03-23T01:51:26;96003.78;;;14.39;54.77
73024;BME280;61199;47.526;8.538;2023-03-23T01:53:58;96004.56;;;14.48;54.62
73024;BME280;61199;47.526;8.538;2023-03-23T01:56:29;96001.94;;;14.48;54.33
73024;BME280;61199;47.526;8.538;2023-03-23T01:58:58;96016.38;;;14.60;54.92
73024;BME280;61199;47.526;8.538;2023-03-23T02:01:24;96016.88;;;14.63;54.78
73024;BME280;61199;47.526;8.538;2023-03-23T02:03:52;96019.91;;;14.36;55.30
73024;BME280;61199;47.526;8.538;2023-03-23T02:06:18;96024.66;;;14.49;55.40
73024;BME280;61199;47.526;8.538;2023-03-23T02:08:44;96033.53;;;14.56;55.05
73024;BME280;61199;47.526;8.538;2023-03-23T02:11:18;96041.09;;;14.59;55.10
73024;BME280;61199;47.526;8.538;2023-03-23T02:13:44;96031.28;;;14.21;56.07
73024;BME280;61199;47.526;8.538;2023-03-23T02:24:51;96026.66;;;14.31;55.80
73024;BME280;61199;47.526;8.538;2023-03-23T02:27:42;96013.00;;;14.11;56.87
73024;BME280;61199;47.526;8.538;2023-03-23T02:33:32;96010.19;;;14.37;56.88
73024;BME280;61199;47.526;8.538;2023-03-23T02:38:41;95986.75;;;14.50;56.91
73024;BME280;61199;47.526;8.538;2023-03-23T02:41:10;95974.91;;;14.54;56.76
73024;BME280;61199;47.526;8.538;2023-03-23T02:43:40;95961.88;;;14.52;57.17
73024;BME280;61199;47.526;8.538;2023-03-23T02:46:09;95960.38;;;14.58;57.05
73024;BME280;61199;47.526;8.538;2023-03-23T02:48:38;95960.09;;;14.53;56.80
73024;BME280;61199;47.526;8.538;2023-03-23T02:51:07;95965.34;;;14.61;55.92
73024;BME280;61199;47.526;8.538;2023-03-23T02:53:36;95970.66;;;14.45;55.70
73024;BME280;61199;47.526;8.538;2023-03-23T02:56:03;95963.94;;;14.18;56.78
73024;BME280;61199;47.526;8.538;2023-03-23T02:58:30;95978.28;;;13.52;58.57
73024;BME280;61199;47.526;8.538;2023-03-23T03:00:56;95976.53;;;13.03;59.51
73024;BME280;61199;47.526;8.538;2023-03-23T03:03:28;95961.88;;;12.92;58.87
73024;BME280;61199;47.526;8.538;2023-03-23T03:09:04;95941.06;;;13.07;59.39
73024;BME280;61199;47.526;8.538;2023-03-23T03:11:21;95932.69;;;13.11;58.94
73024;BME280;61199;47.526;8.538;2023-03-23T03:14:02;95932.19;;;13.08;58.73
73024;BME280;61199;47.526;8.538;2023-03-23T03:16:34;95930.72;;;13.21;58.55
73024;BME280;61199;47.526;8.538;2023-03-23T03:19:08;95931.88;;;13.19;58.71
73024;BME280;61199;47.526;8.538;2023-03-23T03:21:40;95924.06;;;12.93;59.78
73024;BME280;61199;47.526;8.538;2023-03-23T03:24:07;95920.75;;;12.75;59.73
73024;BME280;61199;47.526;8.538;2023-03-23T03:26:38;95921.41;;;12.77;59.44
73024;BME280;61199;47.526;8.538;2023-03-23T03:29:05;95914.84;;;12.73;59.46
73024;BME280;61199;47.526;8.538;2023-03-23T03:31:35;95914.16;;;12.71;59.11
73024;BME280;61199;47.526;8.538;2023-03-23T03:34:01;95914.31;;;12.70;59.26
73024;BME280;61199;47.526;8.538;2023-03-23T03:36:31;95914.00;;;12.73;58.63
73024;BME280;61199;47.526;8.538;2023-03-23T03:39:04;95912.03;;;12.75;58.36
73024;BME280;61199;47.526;8.538;2023-03-23T03:41:33;95917.31;;;12.83;58.10
73024;BME280;61199;47.526;8.538;2023-03-23T03:43:58;95927.84;;;12.91;57.45
73024;BME280;61199;47.526;8.538;2023-03-23T03:46:24;95939.41;;;13.14;56.75
73024;BME280;61199;47.526;8.538;2023-03-23T03:48:52;95944.66;;;13.14;57.53
73024;BME280;61199;47.526;8.538;2023-03-23T03:51:18;95951.31;;;13.34;57.86
73024;BME280;61199;47.526;8.538;2023-03-23T03:53:43;95944.41;;;13.33;58.57
73024;BME280;61199;47.526;8.538;2023-03-23T03:56:08;95942.47;;;12.93;58.82
73024;BME280;61199;47.526;8.538;2023-03-23T03:58:34;95945.94;;;12.94;57.32
73024;BME280;61199;47.526;8.538;2023-03-23T04:01:02;95940.06;;;13.08;58.58
73024;BME280;61199;47.526;8.538;2023-03-23T04:03:27;95934.81;;;13.08;57.76
73024;BME280;61199;47.526;8.538;2023-03-23T04:05:56;95942.06;;;13.22;57.08
73024;BME280;61199;47.526;8.538;2023-03-23T04:08:25;95943.72;;;13.31;57.20
73024;BME280;61199;47.526;8.538;2023-03-23T04:10:52;95938.63;;;13.29;57.58
73024;BME280;61199;47.526;8.538;2023-03-23T04:13:19;95925.13;;;13.24;57.59
73024;BME280;61199;47.526;8.538;2023-03-23T04:15:46;95916.72;;;13.13;58.10
73024;BME280;61199;47.526;8.538;2023-03-23T04:18:12;95921.38;;;13.27;57.67
73024;BME280;61199;47.526;8.538;2023-03-23T04:20:41;95931.22;;;13.49;57.17
73024;BME280;61199;47.526;8.538;2023-03-23T04:23:06;95926.31;;;13.62;56.80
73024;BME280;61199;47.526;8.538;2023-03-23T04:25:32;95927.75;;;13.88;55.94
73024;BME280;61199;47.526;8.538;2023-03-23T04:27:58;95920.69;;;13.81;55.93
73024;BME280;61199;47.526;8.538;2023-03-23T04:30:28;95930.59;;;13.79;56.10
73024;BME280;61199;47.526;8.538;2023-03-23T04:32:54;95928.28;;;13.52;55.68
73024;BME280;61199;47.526;8.538;2023-03-23T04:35:21;95922.84;;;13.45;56.02
73024;BME280;61199;47.526;8.538;2023-03-23T04:37:48;95922.19;;;13.11;56.72
73024;BME280;61199;47.526;8.538;2023-03-23T04:40:14;95920.81;;;12.99;56.88
73024;BME280;61199;47.526;8.538;2023-03-23T04:42:41;95919.97;;;12.91;57.30
73024;BME280;61199;47.526;8.538;2023-03-23T04:45:10;95910.44;;;12.90;57.90
73024;BME280;61199;47.526;8.538;2023-03-23T04:47:38;95922.97;;;13.04;56.83
73024;BME280;61199;47.526;8.538;2023-03-23T04:50:11;95933.41;;;12.80;57.55
73024;BME280;61199;47.526;8.538;2023-03-23T04:52:38;95926.16;;;12.74;57.72
73024;BME280;61199;47.526;8.538;2023-03-23T04:55:06;95937.69;;;12.81;57.32
73024;BME280;61199;47.526;8.538;2023-03-23T04:57:32;95933.44;;;12.88;56.94
73024;BME280;61199;47.526;8.538;2023-03-23T04:59:58;95944.41;;;12.75;57.41
73024;BME280;61199;47.526;8.538;2023-03-23T05:02:24;95939.44;;;12.72;57.61
73024;BME280;61199;47.526;8.538;2023-03-23T05:04:50;95940.63;;;12.86;56.68
73024;BME280;61199;47.526;8.538;2023-03-23T05:07:16;95936.22;;;12.86;56.66
73024;BME280;61199;47.526;8.538;2023-03-23T05:09:41;95933.75;;;12.93;56.78
73024;BME280;61199;47.526;8.538;2023-03-23T05:12:08;95938.34;;;12.91;57.25
73024;BME280;61199;47.526;8.538;2023-03-23T05:14:34;95946.81;;;13.10;56.80
73024;BME280;61199;47.526;8.538;2023-03-23T05:17:00;95944.19;;;13.10;56.61
73024;BME280;61199;47.526;8.538;2023-03-23T05:19:26;95949.09;;;13.05;56.96
73024;BME280;61199;47.526;8.538;2023-03-23T05:21:53;95946.97;;;13.09;56.97
73024;BME280;61199;47.526;8.538;2023-03-23T05:24:19;95946.19;;;13.24;56.44
73024;BME280;61199;47.526;8.538;2023-03-23T05:26:44;95941.25;;;13.21;56.82
73024;BME280;61199;47.526;8.538;2023-03-23T05:29:13;95941.56;;;13.10;56.81
73024;BME280;61199;47.526;8.538;2023-03-23T05:31:39;95940.72;;;13.02;56.94
73024;BME280;61199;47.526;8.538;2023-03-23T05:34:05;95938.44;;;13.07;57.00
73024;BME280;61199;47.526;8.538;2023-03-23T05:36:30;95938.75;;;13.04;56.30
73024;BME280;61199;47.526;8.538;2023-03-23T05:38:55;95934.16;;;13.14;55.90
73024;BME280;61199;47.526;8.538;2023-03-23T05:41:22;95929.72;;;13.14;55.86
73024;BME280;61199;47.526;8.538;2023-03-23T05:43:48;95943.38;;;13.18;55.50
73024;BME280;61199;47.526;8.538;2023-03-23T05:46:13;95933.00;;;13.16;55.67
73024;BME280;61199;47.526;8.538;2023-03-23T05:48:40;95939.09;;;13.17;55.25
73024;BME280;61199;47.526;8.538;2023-03-23T05:51:05;95941.41;;;13.20;55.33
73024;BME280;61199;47.526;8.538;2023-03-23T05:53:30;95949.44;;;13.18;55.41
73024;BME280;61199;47.526;8.538;2023-03-23T05:56:00;95940.75;;;13.18;55.47
73024;BME280;61199;47.526;8.538;2023-03-23T05:58:25;95944.19;;;13.10;55.61
73024;BME280;61199;47.526;8.538;2023-03-23T06:00:51;95953.41;;;13.14;55.41
73024;BME280;61199;47.526;8.538;2023-03-23T06:03:16;95952.56;;;13.14;55.91
73024;BME280;61199;47.526;8.538;2023-03-23T06:05:43;95940.75;;;13.18;55.72
73024;BME280;61199;47.526;8.538;2023-03-23T06:08:11;95940.75;;;13.18;55.63
73024;BME280;61199;47.526;8.538;2023-03-23T06:10:37;95949.66;;;13.25;55.87
73024;BME280;61199;47.526;8.538;2023-03-23T06:13:04;95950.31;;;13.43;55.45
73024;BME280;61199;47.526;8.538;2023-03-23T06:15:30;95952.47;;;13.47;54.98
73024;BME280;61199;47.526;8.538;2023-03-23T06:18:04;95955.75;;;13.41;54.65
73024;BME280;61199;47.526;8.538;2023-03-23T06:20:30;95955.88;;;13.40;54.96
73024;BME280;61199;47.526;8.538;2023-03-23T06:22:56;95959.22;;;13.42;55.01
73024;BME280;61199;47.526;8.538;2023-03-23T06:25:22;95957.38;;;13.42;54.91
73024;BME280;61199;47.526;8.538;2023-03-23T06:27:47;95971.69;;;13.40;55.17
73024;BME280;61199;47.526;8.538;2023-03-23T06:30:13;95967.44;;;13.55;54.68
73024;BME280;61199;47.526;8.538;2023-03-23T06:32:40;95965.44;;;13.65;54.06
73024;BME280;61199;47.526;8.538;2023-03-23T06:35:06;95969.38;;;13.77;53.90
73024;BME280;61199;47.526;8.538;2023-03-23T06:37:34;95966.09;;;13.91;52.80
73024;BME280;61199;47.526;8.538;2023-03-23T06:40:00;95953.56;;;14.09;52.46
73024;BME280;61199;47.526;8.538;2023-03-23T06:42:25;95966.41;;;14.20;51.36
73024;BME280;61199;47.526;8.538;2023-03-23T06:44:52;95963.44;;;14.31;50.86
73024;BME280;61199;47.526;8.538;2023-03-23T06:47:17;95965.41;;;14.29;50.05
73024;BME280;61199;47.526;8.538;2023-03-23T06:49:43;95970.03;;;14.35;50.20
73024;BME280;61199;47.526;8.538;2023-03-23T06:52:08;95982.22;;;14.36;50.09
73024;BME280;61199;47.526;8.538;2023-03-23T06:54:33;95975.09;;;14.44;49.96
73024;BME280;61199;47.526;8.538;2023-03-23T06:56:59;95976.34;;;14.64;49.72
73024;BME280;61199;47.526;8.538;2023-03-23T06:59:24;95975.50;;;14.72;49.63
73024;BME280;61199;47.526;8.538;2023-03-23T07:01:50;95971.00;;;14.80;49.61
73024;BME280;61199;47.526;8.538;2023-03-23T07:04:15;95985.34;;;14.77;48.71
73024;BME280;61199;47.526;8.538;2023-03-23T07:06:41;95981.91;;;14.77;48.59
73024;BME280;61199;47.526;8.538;2023-03-23T07:09:06;95983.03;;;14.82;48.91
73024;BME280;61199;47.526;8.538;2023-03-23T07:11:32;95997.19;;;14.89;48.98
73024;BME280;61199;47.526;8.538;2023-03-23T07:13:58;95991.88;;;14.97;48.99
73024;BME280;61199;47.526;8.538;2023-03-23T07:16:23;95993.34;;;15.00;48.68
73024;BME280;61199;47.526;8.538;2023-03-23T07:18:48;95986.53;;;15.05;48.67
73024;BME280;61199;47.526;8.538;2023-03-23T07:21:14;95988.22;;;15.06;48.61
73024;BME280;61199;47.526;8.538;2023-03-23T07:23:39;95987.88;;;15.09;48.94
73024;BME280;61199;47.526;8.538;2023-03-23T07:26:05;95992.78;;;15.12;48.60
73024;BME280;61199;47.526;8.538;2023-03-23T07:28:31;95990.78;;;15.14;48.78
73024;BME280;61199;47.526;8.538;2023-03-23T07:30:57;95986.66;;;15.20;47.54
73024;BME280;61199;47.526;8.538;2023-03-23T07:33:22;95990.75;;;15.22;48.51
73024;BME280;61199;47.526;8.538;2023-03-23T07:35:48;95998.03;;;15.20;48.55
73024;BME280;61199;47.526;8.538;2023-03-23T07:38:14;96005.91;;;15.28;48.18
73024;BME280;61199;47.526;8.538;2023-03-23T07:40:40;96011.16;;;15.36;48.20
73024;BME280;61199;47.526;8.538;2023-03-23T07:43:06;96009.53;;;15.35;48.29
73024;BME280;61199;47.526;8.538;2023-03-23T07:45:32;96017.44;;;15.35;48.67
73024;BME280;61199;47.526;8.538;2023-03-23T07:47:58;96015.88;;;15.49;48.46
73024;BME280;61199;47.526;8.538;2023-03-23T07:50:23;96013.41;;;15.47;48.55
73024;BME280;61199;47.526;8.538;2023-03-23T07:52:54;96008.34;;;15.60;48.13
73024;BME280;61199;47.526;8.538;2023-03-23T07:55:21;96010.41;;;15.50;48.29
73024;BME280;61199;47.526;8.538;2023-03-23T07:57:47;96007.47;;;15.45;48.28
73024;BME280;61199;47.526;8.538;2023-03-23T08:00:18;96001.72;;;15.42;48.42
73024;BME280;61199;47.526;8.538;2023-03-23T08:02:52;96006.16;;;15.41;47.90
73024;BME280;61199;47.526;8.538;2023-03-23T08:05:19;96007.47;;;15.45;48.39
73024;BME280;61199;47.526;8.538;2023-03-23T08:07:46;96014.81;;;15.35;48.17
73024;BME280;61199;47.526;8.538;2023-03-23T08:10:13;96019.38;;;15.41;48.00
73024;BME280;61199;47.526;8.538;2023-03-23T08:12:40;96011.19;;;15.59;47.57
73024;BME280;61199;47.526;8.538;2023-03-23T08:15:08;96015.22;;;15.69;47.26
73024;BME280;61199;47.526;8.538;2023-03-23T08:17:34;96017.53;;;15.72;47.25
73024;BME280;61199;47.526;8.538;2023-03-23T08:20:00;96017.53;;;15.72;47.43
73024;BME280;61199;47.526;8.538;2023-03-23T08:22:26;96027.69;;;15.61;47.54
73024;BME280;61199;47.526;8.538;2023-03-23T08:24:54;96027.63;;;15.69;47.25
73024;BME280;61199;47.526;8.538;2023-03-23T08:27:20;96028.88;;;15.50;47.27
73024;BME280;61199;47.526;8.538;2023-03-23T08:29:45;96030.19;;;15.54;47.64
73024;BME280;61199;47.526;8.538;2023-03-23T08:32:12;96031.53;;;15.50;47.51
73024;BME280;61199;47.526;8.538;2023-03-23T08:34:37;96029.84;;;15.57;47.58
73024;BME280;61199;47.526;8.538;2023-03-23T08:37:04;96035.13;;;15.80;47.38
73024;BME280;61199;47.526;8.538;2023-03-23T08:39:30;96027.56;;;15.77;46.81
73024;BME280;61199;47.526;8.538;2023-03-23T08:41:56;96033.34;;;15.80;47.36
73024;BME280;61199;47.526;8.538;2023-03-23T08:44:21;96028.06;;;15.80;46.91
73024;BME280;61199;47.526;8.538;2023-03-23T08:46:46;96038.25;;;15.83;46.64
73024;BME280;61199;47.526;8.538;2023-03-23T08:49:12;96028.38;;;15.77;46.78
73024;BME280;61199;47.526;8.538;2023-03-23T08:51:37;96038.19;;;15.91;47.07
73024;BME280;61199;47.526;8.538;2023-03-23T08:54:03;96042.69;;;16.05;46.40
73024;BME280;61199;47.526;8.538;2023-03-23T08:56:28;96030.06;;;16.15;46.11
73024;BME280;61199;47.526;8.538;2023-03-23T08:58:54;96044.09;;;16.16;45.96
73024;BME280;61199;47.526;8.538;2023-03-23T09:01:19;96043.22;;;16.01;45.39
73024;BME280;61199;47.526;8.538;2023-03-23T09:03:45;96045.13;;;15.92;46.19
73024;BME280;61199;47.526;8.538;2023-03-23T09:06:10;96051.34;;;15.99;46.36
73024;BME280;61199;47.526;8.538;2023-03-23T09:08:38;96055.16;;;16.19;46.01
73024;BME280;61199;47.526;8.538;2023-03-23T09:11:08;96055.41;;;16.24;45.68
73024;BME280;61199;47.526;8.538;2023-03-23T09:13:35;96053.56;;;16.10;46.26
73024;BME280;61199;47.526;8.538;2023-03-23T09:16:02;96056.03;;;16.12;46.24
73024;BME280;61199;47.526;8.538;2023-03-23T09:18:28;96055.22;;;16.11;46.00
73024;BME280;61199;47.526;8.538;2023-03-23T09:20:54;96067.78;;;16.09;45.58
73024;BME280;61199;47.526;8.538;2023-03-23T09:23:19;96066.47;;;16.05;45.84
73024;BME280;61199;47.526;8.538;2023-03-23T09:25:46;96075.88;;;16.08;46.00
73024;BME280;61199;47.526;8.538;2023-03-23T09:28:12;96074.00;;;16.16;46.40
73024;BME280;61199;47.526;8.538;2023-03-23T09:30:39;96067.53;;;16.19;46.35
73024;BME280;61199;47.526;8.538;2023-03-23T09:33:06;96074.94;;;16.23;46.14
73024;BME280;61199;47.526;8.538;2023-03-23T09:35:34;96073.41;;;16.06;46.32
73024;BME280;61199;47.526;8.538;2023-03-23T09:38:01;96080.34;;;16.07;46.24
73024;BME280;61199;47.526;8.538;2023-03-23T09:40:42;96077.25;;;16.04;46.42
73024;BME280;61199;47.526;8.538;2023-03-23T09:51:40;96092.09;;;16.05;45.97
73024;BME280;61199;47.526;8.538;2023-03-23T09:56:39;96121.22;;;15.97;46.06
73024;BME280;61199;47.526;8.538;2023-03-23T09:59:31;96114.72;;;16.07;46.29
73024;BME280;61199;47.526;8.538;2023-03-23T10:02:10;96114.19;;;16.12;46.02
73024;BME280;61199;47.526;8.538;2023-03-23T10:04:43;96116.56;;;16.21;46.13
73024;BME280;61199;47.526;8.538;2023-03-23T10:07:13;96123.97;;;16.26;46.35
73024;BME280;61199;47.526;8.538;2023-03-23T10:09:40;96121.81;;;16.29;46.08
73024;BME280;61199;47.526;8.538;2023-03-23T10:12:25;96111.59;;;16.26;46.42
73024;BME280;61199;47.526;8.538;2023-03-23T10:20:50;96130.03;;;16.34;46.64
73024;BME280;61199;47.526;8.538;2023-03-23T10:26:02;96107.88;;;16.43;46.09
73024;BME280;61199;47.526;8.538;2023-03-23T10:28:47;96094.97;;;16.40;46.12
73024;BME280;61199;47.526;8.538;2023-03-23T10:31:21;96073.69;;;16.56;45.74
73024;BME280;61199;47.526;8.538;2023-03-23T10:33:51;96081.16;;;16.53;45.80
73024;BME280;61199;47.526;8.538;2023-03-23T10:36:27;96081.63;;;16.56;45.88
73024;BME280;61199;47.526;8.538;2023-03-23T10:39:02;96077.81;;;16.59;46.06
73024;BME280;61199;47.526;8.538;2023-03-23T10:41:30;96078.28;;;16.62;45.71
73024;BME280;61199;47.526;8.538;2023-03-23T10:43:56;96069.34;;;16.63;46.14
73024;BME280;61199;47.526;8.538;2023-03-23T10:46:51;96078.44;;;16.61;46.68
73024;BME280;61199;47.526;8.538;2023-03-23T10:49:46;96070.44;;;16.83;45.69
73024;BME280;61199;47.526;8.538;2023-03-23T10:55:04;96070.00;;;16.94;45.27
73024;BME280;61199;47.526;8.538;2023-03-23T10:57:32;96073.28;;;16.96;44.64
73024;BME280;61199;47.526;8.538;2023-03-23T11:02:42;96073.56;;;17.16;45.03
73024;BME280;61199;47.526;8.538;2023-03-23T11:05:20;96082.41;;;16.94;45.30
73024;BME280;61199;47.526;8.538;2023-03-23T11:07:56;96075.28;;;16.94;46.28
73024;BME280;61199;47.526;8.538;2023-03-23T11:10:38;96078.59;;;17.25;45.13
73024;BME280;61199;47.526;8.538;2023-03-23T11:13:04;96074.56;;;17.29;45.09
73024;BME280;61199;47.526;8.538;2023-03-23T11:15:36;96070.34;;;17.20;45.51
73024;BME280;61199;47.526;8.538;2023-03-23T11:18:05;96060.25;;;17.09;45.50
73024;BME280;61199;47.526;8.538;2023-03-23T11:20:38;96071.00;;;17.08;46.38
73024;BME280;61199;47.526;8.538;2023-03-23T11:25:59;96072.94;;;17.43;45.55
73024;BME280;61199;47.526;8.538;2023-03-23T11:28:29;96067.00;;;17.41;45.37
73024;BME280;61199;47.526;8.538;2023-03-23T11:30:57;96068.81;;;17.26;45.47
73024;BME280;61199;47.526;8.538;2023-03-23T11:33:22;96064.59;;;17.31;45.51
73024;BME280;61199;47.526;8.538;2023-03-23T11:35:52;96056.56;;;17.54;45.68
73024;BME280;61199;47.526;8.538;2023-03-23T11:38:20;96073.28;;;17.54;45.49
73024;BME280;61199;47.526;8.538;2023-03-23T11:40:51;96080.31;;;17.33;46.08
73024;BME280;61199;47.526;8.538;2023-03-23T11:43:21;96084.97;;;17.45;46.36
73024;BME280;61199;47.526;8.538;2023-03-23T11:45:56;96076.91;;;17.24;46.63
73024;BME280;61199;47.526;8.538;2023-03-23T11:49:05;96084.88;;;17.10;46.72
73024;BME280;61199;47.526;8.538;2023-03-23T11:51:41;96076.50;;;17.21;46.29
73024;BME280;61199;47.526;8.538;2023-03-23T11:54:31;96076.03;;;17.17;46.64
73024;BME280;61199;47.526;8.538;2023-03-23T11:56:58;96076.28;;;17.08;46.59
73024;BME280;61199;47.526;8.538;2023-03-23T11:59:32;96075.47;;;17.22;46.32
73024;BME280;61199;47.526;8.538;2023-03-23T12:04:57;96079.47;;;17.32;46.14
73024;BME280;61199;47.526;8.538;2023-03-23T12:16:00;96045.69;;;18.05;44.30
73024;BME280;61199;47.526;8.538;2023-03-23T12:18:58;96045.00;;;18.38;43.63
73024;BME280;61199;47.526;8.538;2023-03-23T12:26:56;96025.88;;;18.22;43.73
73024;BME280;61199;47.526;8.538;2023-03-23T12:29:34;96028.88;;;18.33;43.58
73024;BME280;61199;47.526;8.538;2023-03-23T12:32:14;96038.94;;;18.02;44.30
73024;BME280;61199;47.526;8.538;2023-03-23T12:37:41;96024.72;;;18.52;43.54
73024;BME280;61199;47.526;8.538;2023-03-23T12:40:27;96025.03;;;18.70;43.25
73024;BME280;61199;47.526;8.538;2023-03-23T12:46:08;96022.00;;;18.45;43.04
73024;BME280;61199;47.526;8.538;2023-03-23T12:48:44;96023.84;;;18.24;43.67
73024;BME280;61199;47.526;8.538;2023-03-23T12:51:35;96023.59;;;18.19;43.96
73024;BME280;61199;47.526;8.538;2023-03-23T12:56:56;96028.44;;;17.53;46.11
73024;BME280;61199;47.526;8.538;2023-03-23T13:02:13;96023.25;;;17.80;47.12
73024;BME280;61199;47.526;8.538;2023-03-23T13:04:43;96005.56;;;17.87;46.56
73024;BME280;61199;47.526;8.538;2023-03-23T13:07:18;95981.31;;;18.11;48.26
73024;BME280;61199;47.526;8.538;2023-03-23T13:09:55;95989.88;;;18.34;45.73
73024;BME280;61199;47.526;8.538;2023-03-23T13:12:25;95999.34;;;18.22;45.58
73024;BME280;61199;47.526;8.538;2023-03-23T13:21:07;96027.31;;;17.62;46.97
73024;BME280;61199;47.526;8.538;2023-03-23T13:23:41;96040.63;;;17.68;47.45
73024;BME280;61199;47.526;8.538;2023-03-23T13:26:12;96049.91;;;17.43;48.33
73024;BME280;61199;47.526;8.538;2023-03-23T13:31:36;96024.91;;;17.02;47.00
73024;BME280;61199;47.526;8.538;2023-03-23T13:34:04;96031.84;;;17.03;49.86
73024;BME280;61199;47.526;8.538;2023-03-23T13:36:38;96029.84;;;17.05;51.36
73024;BME280;61199;47.526;8.538;2023-03-23T13:39:07;96033.50;;;16.90;50.47
73024;BME280;61199;47.526;8.538;2023-03-23T13:41:58;96017.53;;;16.98;50.27
73024;BME280;61199;47.526;8.538;2023-03-23T13:44:26;96004.22;;;16.91;49.05
73024;BME280;61199;47.526;8.538;2023-03-23T13:47:28;95998.38;;;16.96;48.98
73024;BME280;61199;47.526;8.538;2023-03-23T13:50:00;96005.13;;;17.13;48.77
73024;BME280;61199;47.526;8.538;2023-03-23T14:05:41;95997.16;;;17.27;47.04
73024;BME280;61199;47.526;8.538;2023-03-23T14:11:12;95989.69;;;17.16;46.25
73024;BME280;61199;47.526;8.538;2023-03-23T14:16:39;95996.31;;;17.27;46.05
73024;BME280;61199;47.526;8.538;2023-03-23T14:19:19;95997.69;;;17.37;45.95
73024;BME280;61199;47.526;8.538;2023-03-23T14:24:22;95982.84;;;17.57;45.61
73024;BME280;61199;47.526;8.538;2023-03-23T14:26:49;95989.16;;;17.56;45.85
73024;BME280;61199;47.526;8.538;2023-03-23T14:29:18;95987.75;;;17.60;44.11
73024;BME280;61199;47.526;8.538;2023-03-23T14:31:43;95982.91;;;17.64;45.21
73024;BME280;61199;47.526;8.538;2023-03-23T14:34:14;95988.03;;;17.65;45.99
73024;BME280;61199;47.526;8.538;2023-03-23T14:36:41;96001.38;;;17.57;45.03
73024;BME280;61199;47.526;8.538;2023-03-23T14:41:41;95987.97;;;17.59;44.48
73024;BME280;61199;47.526;8.538;2023-03-23T14:44:13;95983.78;;;17.71;44.65
73024;BME280;61199;47.526;8.538;2023-03-23T14:46:41;95991.19;;;17.75;44.16
73024;BME280;61199;47.526;8.538;2023-03-23T14:49:13;95990.44;;;17.81;44.84
73024;BME280;61199;47.526;8.538;2023-03-23T14:51:51;96013.69;;;17.65;44.42
73024;BME280;61199;47.526;8.538;2023-03-23T14:54:25;96003.84;;;17.59;43.55
73024;BME280;61199;47.526;8.538;2023-03-23T14:56:51;95989.31;;;17.55;44.28